createdAt,value
2018-09-01T00:02:37.281Z,13.38
2018-09-01T00:05:41.784Z,13.39
2018-09-01T00:08:46.410Z,13.37
2018-09-01T00:11:50.766Z,13.38
2018-09-01T00:14:55.357Z,13.42
2018-09-01T00:17:59.712Z,13.41
2018-09-01T00:21:04.113Z,13.40
2018-09-01T00:24:10.522Z,13.39
2018-09-01T00:27:14.989Z,13.37
2018-09-01T00:30:19.327Z,13.45
2018-09-01T00:33:23.762Z,13.42
2018-09-01T00:36:28.113Z,13.53
2018-09-01T00:39:32.573Z,13.62
2018-09-01T00:42:37.150Z,13.59
2018-09-01T00:45:41.655Z,13.54
2018-09-01T00:48:46.058Z,13.50
2018-09-01T00:51:50.424Z,13.38
2018-09-01T00:54:54.932Z,13.48
2018-09-01T00:57:59.353Z,13.47
2018-09-01T01:01:03.785Z,13.40
2018-09-01T01:04:08.202Z,13.42
2018-09-01T01:07:14.387Z,13.41
2018-09-01T01:10:19.887Z,13.37
2018-09-01T01:13:24.301Z,13.44
2018-09-01T01:16:28.679Z,13.36
2018-09-01T01:19:33.039Z,13.39
2018-09-01T01:22:37.582Z,13.35
2018-09-01T01:25:41.954Z,13.34
2018-09-01T01:28:46.333Z,13.33
2018-09-01T01:31:50.907Z,13.40
2018-09-01T01:34:55.873Z,13.34
2018-09-01T01:38:00.229Z,13.34
2018-09-01T01:41:05.316Z,13.30
2018-09-01T01:44:10.407Z,13.36
2018-09-01T01:47:14.785Z,13.37
2018-09-01T01:50:19.167Z,13.32
2018-09-01T01:53:23.532Z,13.31
2018-09-01T01:56:28.034Z,13.24
2018-09-01T01:59:33.140Z,13.22
2018-09-01T02:02:37.902Z,13.33
2018-09-01T02:05:42.281Z,13.23
2018-09-01T02:08:46.667Z,13.31
2018-09-01T02:11:51.011Z,13.36
2018-09-01T02:14:55.516Z,13.33
2018-09-01T02:17:59.873Z,13.31
2018-09-01T02:21:04.222Z,13.35
2018-09-01T02:24:08.589Z,13.29
2018-09-01T02:27:12.941Z,13.10
2018-09-01T02:30:17.300Z,13.14
2018-09-01T02:33:21.677Z,13.12
2018-09-01T02:36:26.042Z,13.23
2018-09-01T02:39:30.412Z,13.15
2018-09-01T02:42:34.748Z,13.14
2018-09-01T02:45:39.111Z,13.12
2018-09-01T02:48:43.469Z,13.13
2018-09-01T02:51:47.810Z,13.15
2018-09-01T02:54:52.201Z,13.13
2018-09-01T02:57:56.562Z,13.14
2018-09-01T03:01:06.280Z,13.22
2018-09-01T03:04:10.639Z,13.14
2018-09-01T03:07:14.998Z,13.14
2018-09-01T03:10:19.349Z,13.15
2018-09-01T03:13:24.759Z,13.14
2018-09-01T03:16:30.787Z,13.16
2018-09-01T03:19:35.182Z,13.18
2018-09-01T03:22:39.846Z,13.12
2018-09-01T03:25:44.208Z,13.17
2018-09-01T03:28:48.613Z,13.16
2018-09-01T03:31:53.023Z,13.23
2018-09-01T03:34:57.442Z,13.16
2018-09-01T03:38:01.952Z,13.23
2018-09-01T03:41:06.408Z,13.22
2018-09-01T03:44:10.823Z,13.27
2018-09-01T03:47:16.135Z,13.18
2018-09-01T03:50:20.524Z,13.22
2018-09-01T03:53:24.961Z,13.17
2018-09-01T03:56:30.262Z,13.10
2018-09-01T03:59:34.607Z,13.06
2018-09-01T04:02:39.049Z,13.03
2018-09-01T04:05:44.234Z,13.01
2018-09-01T04:08:48.703Z,13.00
2018-09-01T04:11:53.342Z,13.01
2018-09-01T04:14:57.857Z,12.93
2018-09-01T04:18:02.207Z,12.96
2018-09-01T04:21:06.738Z,12.99
2018-09-01T04:24:11.115Z,12.96
2018-09-01T04:27:15.470Z,12.96
2018-09-01T04:30:19.869Z,12.92
2018-09-01T04:33:24.319Z,12.89
2018-09-01T04:36:28.648Z,12.91
2018-09-01T04:39:33.064Z,12.92
2018-09-01T04:42:37.534Z,12.91
2018-09-01T04:45:42.528Z,12.90
2018-09-01T04:48:47.043Z,12.82
2018-09-01T04:51:51.462Z,12.72
2018-09-01T04:54:55.968Z,12.77
2018-09-01T04:58:00.513Z,12.66
2018-09-01T05:01:05.094Z,12.72
2018-09-01T05:04:09.479Z,12.72
2018-09-01T05:07:14.015Z,12.73
2018-09-01T05:10:19.569Z,12.74
2018-09-01T05:13:23.975Z,12.82
2018-09-01T05:16:28.499Z,12.87
2018-09-01T05:19:32.837Z,12.87
2018-09-01T05:22:37.277Z,12.85
2018-09-01T05:25:41.654Z,12.84
2018-09-01T05:28:46.082Z,12.84
2018-09-01T05:31:50.433Z,12.77
2018-09-01T05:34:54.764Z,12.76
2018-09-01T05:37:59.170Z,12.76
2018-09-01T05:41:03.611Z,12.66
2018-09-01T05:44:08.141Z,12.60
2018-09-01T05:47:12.553Z,12.57
2018-09-01T05:50:18.075Z,12.67
2018-09-01T05:53:22.598Z,12.69
2018-09-01T05:56:26.998Z,12.69
2018-09-01T05:59:31.534Z,12.61
2018-09-01T06:02:35.931Z,12.69
2018-09-01T06:05:40.266Z,12.74
2018-09-01T06:08:44.610Z,12.59
2018-09-01T06:11:49.001Z,12.63
2018-09-01T06:14:53.431Z,12.66
2018-09-01T06:17:58.054Z,12.71
2018-09-01T06:21:02.466Z,12.79
2018-09-01T06:24:07.196Z,12.77
2018-09-01T06:27:29.838Z,12.73
2018-09-01T06:30:37.935Z,12.72
2018-09-01T06:33:42.287Z,12.70
2018-09-01T06:36:47.191Z,12.70
2018-09-01T06:39:51.838Z,12.69
2018-09-01T06:42:56.494Z,12.84
2018-09-01T06:46:01.994Z,12.80
2018-09-01T06:49:06.760Z,12.79
2018-09-01T06:52:11.280Z,12.80
2018-09-01T06:55:15.837Z,12.67
2018-09-01T06:58:20.583Z,12.57
2018-09-01T07:01:25.090Z,12.59
2018-09-01T07:04:29.661Z,12.55
2018-09-01T07:07:34.226Z,12.53
2018-09-01T07:10:39.398Z,12.61
2018-09-01T07:13:43.896Z,12.53
2018-09-01T07:16:49.875Z,12.64
2018-09-01T07:19:54.444Z,12.57
2018-09-01T07:22:58.767Z,12.63
2018-09-01T07:26:03.208Z,12.57
2018-09-01T07:29:07.818Z,12.61
2018-09-01T07:32:12.212Z,12.59
2018-09-01T07:35:16.787Z,12.65
2018-09-01T07:38:21.519Z,12.62
2018-09-01T07:41:26.090Z,12.72
2018-09-01T07:44:30.759Z,12.80
2018-09-01T07:47:35.175Z,12.90
2018-09-01T07:50:39.506Z,12.98
2018-09-01T07:53:43.924Z,13.15
2018-09-01T07:56:48.321Z,13.22
2018-09-01T07:59:52.736Z,13.42
2018-09-01T08:02:57.236Z,13.53
2018-09-01T08:06:01.809Z,13.51
2018-09-01T08:09:08.998Z,13.43
2018-09-01T08:12:14.454Z,13.30
2018-09-01T08:15:19.129Z,13.21
2018-09-01T08:18:23.588Z,13.12
2018-09-01T08:21:27.957Z,13.17
2018-09-01T08:24:32.939Z,13.17
2018-09-01T08:27:37.592Z,13.31
2018-09-01T08:30:42.198Z,13.17
2018-09-01T08:33:46.848Z,13.15
2018-09-01T08:36:51.306Z,13.20
2018-09-01T08:39:55.701Z,13.21
2018-09-01T08:43:00.089Z,13.27
2018-09-01T08:46:04.643Z,13.22
2018-09-01T08:49:09.030Z,13.21
2018-09-01T08:52:13.410Z,13.20
2018-09-01T08:55:17.789Z,13.30
2018-09-01T08:58:22.521Z,13.26
2018-09-01T09:01:26.950Z,13.17
2018-09-01T09:04:31.334Z,13.15
2018-09-01T09:07:35.902Z,13.35
2018-09-01T09:10:41.069Z,13.38
2018-09-01T09:13:45.486Z,13.33
2018-09-01T09:16:49.939Z,13.30
2018-09-01T09:19:54.359Z,13.33
2018-09-01T09:23:00.349Z,13.45
2018-09-01T09:26:04.771Z,13.51
2018-09-01T09:29:09.234Z,13.54
2018-09-01T09:32:14.421Z,13.48
2018-09-01T09:35:19.892Z,13.56
2018-09-01T09:38:24.393Z,13.76
2018-09-01T09:41:28.958Z,13.95
2018-09-01T09:44:33.617Z,14.04
2018-09-01T09:47:38.095Z,13.95
2018-09-01T09:50:42.528Z,13.71
2018-09-01T09:53:47.017Z,13.73
2018-09-01T09:56:51.484Z,13.82
2018-09-01T09:59:55.997Z,13.86
2018-09-01T10:03:00.565Z,13.80
2018-09-01T10:06:05.252Z,13.76
2018-09-01T10:09:13.990Z,13.76
2018-09-01T10:12:18.393Z,13.87
2018-09-01T10:15:23.224Z,14.03
2018-09-01T10:18:27.630Z,14.00
2018-09-01T10:21:32.285Z,14.13
2018-09-01T10:24:36.697Z,14.11
2018-09-01T10:27:41.555Z,13.79
2018-09-01T10:30:46.029Z,13.71
2018-09-01T10:33:50.505Z,13.60
2018-09-01T10:36:54.875Z,13.53
2018-09-01T10:39:59.288Z,13.39
2018-09-01T10:43:03.737Z,13.38
2018-09-01T10:46:08.183Z,13.37
2018-09-01T10:49:13.356Z,13.52
2018-09-01T10:52:17.901Z,13.58
2018-09-01T10:55:22.531Z,13.58
2018-09-01T10:58:27.338Z,13.54
2018-09-01T11:01:31.732Z,13.34
2018-09-01T11:04:36.900Z,13.29
2018-09-01T11:07:41.469Z,13.25
2018-09-01T11:10:46.075Z,13.23
2018-09-01T11:13:50.683Z,13.19
2018-09-01T11:16:55.276Z,13.22
2018-09-01T11:19:59.926Z,13.34
2018-09-01T11:23:04.431Z,13.39
2018-09-01T11:26:09.135Z,13.61
2018-09-01T11:29:13.542Z,13.78
2018-09-01T11:32:17.974Z,14.07
2018-09-01T11:35:22.522Z,14.18
2018-09-01T11:38:26.968Z,14.23
2018-09-01T11:41:31.800Z,14.17
2018-09-01T11:44:36.473Z,14.20
2018-09-01T11:47:41.169Z,14.17
2018-09-01T11:50:45.651Z,14.04
2018-09-01T11:53:50.059Z,13.93
2018-09-01T11:56:54.412Z,13.91
2018-09-01T11:59:58.768Z,13.80
2018-09-01T12:03:03.665Z,13.69
2018-09-01T12:06:08.329Z,13.57
2018-09-01T12:09:13.852Z,13.58
2018-09-01T12:12:18.171Z,13.61
2018-09-01T12:15:22.665Z,13.67
2018-09-01T12:18:27.379Z,13.72
2018-09-01T12:21:31.738Z,13.76
2018-09-01T12:24:36.671Z,13.82
2018-09-01T12:27:41.040Z,13.87
2018-09-01T12:30:45.439Z,14.02
2018-09-01T12:33:50.118Z,14.17
2018-09-01T12:36:54.481Z,14.17
2018-09-01T12:39:59.901Z,14.27
2018-09-01T12:43:04.313Z,14.25
2018-09-01T12:46:09.162Z,14.29
2018-09-01T12:49:13.663Z,14.30
2018-09-01T12:52:18.113Z,14.15
2018-09-01T12:55:22.701Z,13.99
2018-09-01T12:58:27.772Z,13.79
2018-09-01T13:01:32.231Z,13.74
2018-09-01T13:04:36.905Z,13.75
2018-09-01T13:07:41.321Z,13.66
2018-09-01T13:10:45.707Z,13.38
2018-09-01T13:13:50.126Z,13.21
2018-09-01T13:16:54.521Z,13.20
2018-09-01T13:19:58.925Z,13.21
2018-09-01T13:23:03.279Z,13.25
2018-09-01T13:26:07.798Z,13.39
2018-09-01T13:29:12.371Z,13.35
2018-09-01T13:32:16.704Z,13.44
2018-09-01T13:35:21.057Z,13.46
2018-09-01T13:38:25.513Z,13.38
2018-09-01T13:41:30.027Z,13.44
2018-09-01T13:44:34.582Z,13.47
2018-09-01T13:47:38.934Z,13.34
2018-09-01T13:50:43.289Z,13.27
2018-09-01T13:53:47.641Z,12.92
2018-09-01T13:56:52.010Z,12.79
2018-09-01T13:59:56.499Z,12.66
2018-09-01T14:03:00.975Z,12.80
2018-09-01T14:06:06.895Z,12.85
2018-09-01T14:09:11.761Z,12.89
2018-09-01T14:12:16.101Z,12.77
2018-09-01T14:15:20.637Z,12.82
2018-09-01T14:18:25.166Z,12.63
2018-09-01T14:21:29.587Z,12.58
2018-09-01T14:24:34.201Z,12.57
2018-09-01T14:27:38.637Z,12.65
2018-09-01T14:30:43.094Z,12.69
2018-09-01T14:33:47.929Z,12.72
2018-09-01T14:36:52.289Z,12.68
2018-09-01T14:39:56.928Z,12.72
2018-09-01T14:43:01.345Z,12.77
2018-09-01T14:46:05.729Z,12.75
2018-09-01T14:49:10.252Z,12.82
2018-09-01T14:52:14.639Z,12.76
2018-09-01T14:55:19.290Z,12.76
2018-09-01T14:58:24.254Z,12.52
2018-09-01T15:01:28.757Z,12.33
2018-09-01T15:04:33.257Z,12.36
2018-09-01T15:07:37.737Z,12.33
2018-09-01T15:10:42.445Z,12.37
2018-09-01T15:13:46.893Z,12.28
2018-09-01T15:16:51.492Z,12.31
2018-09-01T15:20:02.801Z,12.30
2018-09-01T15:23:07.163Z,12.24
2018-09-01T15:26:11.668Z,12.19
2018-09-01T15:29:16.058Z,12.16
2018-09-01T15:32:20.407Z,12.08
2018-09-01T15:35:25.129Z,12.10
2018-09-01T15:38:29.520Z,12.01
2018-09-01T15:41:34.076Z,12.01
2018-09-01T15:44:38.550Z,11.95
2018-09-01T15:47:42.965Z,11.96
2018-09-01T15:50:47.350Z,11.96
2018-09-01T15:53:51.767Z,11.93
2018-09-01T15:56:56.290Z,12.05
2018-09-01T16:00:00.850Z,11.95
2018-09-01T16:03:05.206Z,11.97
2018-09-01T16:06:09.687Z,12.07
2018-09-01T16:09:14.142Z,12.02
2018-09-01T16:12:18.626Z,12.08
2018-09-01T16:15:23.324Z,11.92
2018-09-01T16:19:52.315Z,11.94
2018-09-01T16:22:56.902Z,11.84
2018-09-01T16:26:01.247Z,11.95
2018-09-01T16:29:05.634Z,11.95
2018-09-01T16:32:09.967Z,12.01
2018-09-01T16:35:14.341Z,12.01
2018-09-01T16:38:18.866Z,12.01
2018-09-01T16:41:23.933Z,12.00
2018-09-01T16:44:28.418Z,12.03
2018-09-01T16:47:32.891Z,12.07
2018-09-01T16:50:37.326Z,12.08
2018-09-01T16:53:41.765Z,12.07
2018-09-01T16:56:46.212Z,12.05
2018-09-01T16:59:50.592Z,12.06
2018-09-01T17:02:54.969Z,12.06
2018-09-01T17:05:59.430Z,12.01
2018-09-01T17:09:04.421Z,11.94
2018-09-01T17:12:09.021Z,11.98
2018-09-01T17:15:13.487Z,12.05
2018-09-01T17:18:17.886Z,12.03
2018-09-01T17:21:22.367Z,11.97
2018-09-01T17:24:26.717Z,11.97
2018-09-01T17:27:31.466Z,11.96
2018-09-01T17:30:35.913Z,11.84
2018-09-01T17:33:40.319Z,11.80
2018-09-01T17:36:44.844Z,11.74
2018-09-01T17:39:50.239Z,11.66
2018-09-01T17:42:54.685Z,11.63
2018-09-01T17:45:59.064Z,11.55
2018-09-01T17:49:03.445Z,11.52
2018-09-01T17:52:07.799Z,11.48
2018-09-01T17:55:12.352Z,11.46
2018-09-01T17:58:16.523Z,11.44
2018-09-01T18:01:22.400Z,11.42
2018-09-01T18:04:26.845Z,11.42
2018-09-01T18:07:31.485Z,11.41
2018-09-01T18:10:36.048Z,11.43
2018-09-01T18:13:40.704Z,11.41
2018-09-01T18:16:45.204Z,11.38
2018-09-01T18:19:49.635Z,11.46
2018-09-01T18:22:54.793Z,11.52
2018-09-01T18:25:59.165Z,11.61
2018-09-01T18:29:03.551Z,11.60
2018-09-01T18:32:08.005Z,11.73
2018-09-01T18:35:12.395Z,11.77
2018-09-01T18:38:16.896Z,11.71
2018-09-01T18:41:21.290Z,11.72
2018-09-01T18:44:25.697Z,11.70
2018-09-01T18:47:30.228Z,11.80
2018-09-01T18:50:34.741Z,11.87
2018-09-01T18:53:39.125Z,11.91
2018-09-01T18:56:44.570Z,11.93
2018-09-01T18:59:49.168Z,11.82
2018-09-01T19:02:54.185Z,11.87
2018-09-01T19:05:58.531Z,11.74
2018-09-01T19:09:02.952Z,11.85
2018-09-01T19:12:08.199Z,11.71
2018-09-01T19:15:12.548Z,11.80
2018-09-01T19:18:17.207Z,11.76
2018-09-01T19:21:21.601Z,11.82
2018-09-01T19:24:26.285Z,11.79
2018-09-01T19:27:30.710Z,11.80
2018-09-01T19:30:35.292Z,11.79
2018-09-01T19:33:39.930Z,11.84
2018-09-01T19:36:44.278Z,11.89
2018-09-01T19:39:48.618Z,11.87
2018-09-01T19:42:53.450Z,11.92
2018-09-01T19:45:59.128Z,11.82
2018-09-01T19:49:03.509Z,11.91
2018-09-01T19:52:08.512Z,11.96
2018-09-01T19:55:12.861Z,11.88
2018-09-01T19:58:17.238Z,12.01
2018-09-01T20:01:21.602Z,11.91
2018-09-01T20:04:26.103Z,11.95
2018-09-01T20:07:30.702Z,11.91
2018-09-01T20:10:35.482Z,11.89
2018-09-01T20:13:40.405Z,11.81
2018-09-01T20:16:45.073Z,11.82
2018-09-01T20:19:49.470Z,11.87
2018-09-01T20:22:54.122Z,11.76
2018-09-01T20:25:58.453Z,11.54
2018-09-01T20:29:03.066Z,11.47
2018-09-01T20:32:07.471Z,11.44
2018-09-01T20:35:17.034Z,11.39
2018-09-01T20:38:22.158Z,11.40
2018-09-01T20:41:26.632Z,11.38
2018-09-01T20:44:31.330Z,11.40
2018-09-01T20:47:35.689Z,11.44
2018-09-01T20:50:40.206Z,11.54
2018-09-01T20:53:44.541Z,11.60
2018-09-01T20:56:48.983Z,11.56
2018-09-01T20:59:53.506Z,11.59
2018-09-01T21:02:58.018Z,11.54
2018-09-01T21:06:02.461Z,11.58
2018-09-01T21:09:09.285Z,11.60
2018-09-01T21:12:13.667Z,11.52
2018-09-01T21:15:18.022Z,11.61
2018-09-01T21:18:22.581Z,11.60
2018-09-01T21:21:26.958Z,11.61
2018-09-01T21:24:31.481Z,11.65
2018-09-01T21:27:36.279Z,11.67
2018-09-01T21:30:40.811Z,11.65
2018-09-01T21:33:45.217Z,11.70
2018-09-01T21:36:49.656Z,11.75
2018-09-01T21:39:54.077Z,11.72
2018-09-01T21:42:58.655Z,11.74
2018-09-01T21:46:03.041Z,11.68
2018-09-01T21:49:07.637Z,11.72
2018-09-01T21:52:12.045Z,11.59
2018-09-01T21:55:16.647Z,11.58
2018-09-01T21:58:20.974Z,11.59
2018-09-01T22:01:30.599Z,11.76
2018-09-01T22:04:40.225Z,11.65
2018-09-01T22:07:44.863Z,11.71
2018-09-01T22:10:50.153Z,11.64
2018-09-01T22:13:54.638Z,11.73
2018-09-01T22:16:59.221Z,11.70
2018-09-01T22:20:04.258Z,11.71
2018-09-01T22:23:08.601Z,11.73
2018-09-01T22:26:13.039Z,11.67
2018-09-01T22:29:17.574Z,11.67
2018-09-01T22:32:21.962Z,11.63
2018-09-01T22:35:26.355Z,11.64
2018-09-01T22:38:31.226Z,11.62
2018-09-01T22:41:35.707Z,11.74
2018-09-01T22:44:40.086Z,11.75
2018-09-01T22:47:44.655Z,11.65
2018-09-01T22:50:49.151Z,11.74
2018-09-01T22:53:56.470Z,11.65
2018-09-01T22:57:00.973Z,11.76
2018-09-01T23:00:06.061Z,11.73
2018-09-01T23:03:10.489Z,11.67
2018-09-01T23:06:15.038Z,11.85
2018-09-01T23:09:19.626Z,11.70
2018-09-01T23:12:23.954Z,11.69
2018-09-01T23:15:28.321Z,11.70
2018-09-01T23:18:32.703Z,11.77
2018-09-01T23:21:37.032Z,11.75
2018-09-01T23:24:41.613Z,11.79
2018-09-01T23:27:46.741Z,11.76
2018-09-01T23:30:51.077Z,11.78
2018-09-01T23:33:55.458Z,11.72
2018-09-01T23:36:59.915Z,11.72
2018-09-01T23:40:05.398Z,11.76
2018-09-01T23:43:09.889Z,11.69
2018-09-01T23:46:14.435Z,11.69
2018-09-01T23:49:18.860Z,11.64
2018-09-01T23:52:23.185Z,11.66
2018-09-01T23:55:27.680Z,11.69
2018-09-01T23:58:31.995Z,11.75
